createdAt,value
2023-01-07T00:01:41.572Z,14.75
2023-01-07T00:04:11.655Z,14.76
2023-01-07T00:06:40.038Z,14.73
2023-01-07T00:09:10.016Z,14.72
2023-01-07T00:11:38.410Z,14.74
2023-01-07T00:14:07.485Z,14.74
2023-01-07T00:16:35.874Z,14.71
2023-01-07T00:19:04.289Z,14.70
2023-01-07T00:21:31.376Z,14.72
2023-01-07T00:24:00.503Z,14.71
2023-01-07T00:26:30.534Z,14.72
2023-01-07T00:28:57.664Z,14.71
2023-01-07T00:31:29.855Z,14.69
2023-01-07T00:33:56.896Z,14.72
2023-01-07T00:36:26.654Z,14.71
2023-01-07T00:39:01.985Z,14.72
2023-01-07T00:41:29.581Z,14.72
2023-01-07T00:43:56.444Z,14.71
2023-01-07T00:46:23.155Z,14.70
2023-01-07T00:48:50.365Z,14.67
2023-01-07T00:51:18.057Z,14.66
2023-01-07T00:53:44.996Z,14.66
2023-01-07T00:56:12.702Z,14.64
2023-01-07T00:58:39.279Z,14.63
2023-01-07T01:01:06.092Z,14.60
2023-01-07T01:03:33.782Z,14.59
2023-01-07T01:06:05.288Z,14.56
2023-01-07T01:08:32.083Z,14.55
2023-01-07T01:11:08.549Z,14.52
2023-01-07T01:13:35.405Z,14.48
2023-01-07T01:16:06.688Z,14.46
2023-01-07T01:18:33.276Z,14.44
2023-01-07T01:21:06.969Z,14.41
2023-01-07T01:23:35.966Z,14.39
2023-01-07T01:26:10.819Z,14.35
2023-01-07T01:28:38.006Z,14.36
2023-01-07T01:31:05.421Z,14.31
2023-01-07T01:33:42.281Z,14.29
2023-01-07T01:36:12.940Z,14.26
2023-01-07T01:38:40.402Z,14.23
2023-01-07T01:41:07.566Z,14.20
2023-01-07T01:43:39.663Z,14.16
2023-01-07T01:46:18.890Z,14.14
2023-01-07T01:48:52.828Z,14.13
2023-01-07T01:51:24.094Z,14.10
2023-01-07T01:53:52.031Z,14.08
2023-01-07T01:56:25.827Z,14.04
2023-01-07T01:58:58.321Z,14.02
2023-01-07T02:01:25.293Z,13.99
2023-01-07T02:03:52.940Z,13.98
2023-01-07T02:06:26.420Z,13.95
2023-01-07T02:08:54.659Z,13.93
2023-01-07T02:11:41.189Z,13.93
2023-01-07T02:14:20.948Z,13.92
2023-01-07T02:16:57.601Z,13.92
2023-01-07T02:19:46.832Z,13.92
2023-01-07T02:22:48.213Z,13.92
2023-01-07T02:25:58.347Z,13.90
2023-01-07T02:28:55.662Z,13.90
2023-01-07T02:31:25.002Z,13.90
2023-01-07T02:34:04.938Z,13.89
2023-01-07T02:36:46.979Z,13.89
2023-01-07T02:39:47.960Z,13.92
2023-01-07T02:42:43.512Z,13.92
2023-01-07T02:46:02.952Z,13.96
2023-01-07T02:48:31.792Z,14.00
2023-01-07T02:50:58.404Z,14.00
2023-01-07T02:53:25.306Z,13.99
2023-01-07T02:55:58.441Z,13.99
2023-01-07T02:58:41.955Z,13.98
2023-01-07T03:01:26.529Z,13.98
2023-01-07T03:04:05.437Z,13.98
2023-01-07T03:07:05.626Z,13.96
2023-01-07T03:09:51.175Z,13.96
2023-01-07T03:12:31.485Z,13.98
2023-01-07T03:15:07.837Z,13.95
2023-01-07T03:17:43.436Z,13.97
2023-01-07T03:20:12.957Z,13.95
2023-01-07T03:22:42.635Z,13.95
2023-01-07T03:25:12.944Z,13.96
2023-01-07T03:27:41.424Z,13.98
2023-01-07T03:30:13.558Z,14.00
2023-01-07T03:32:49.536Z,14.00
2023-01-07T03:35:18.713Z,14.00
2023-01-07T03:37:46.879Z,14.00
2023-01-07T03:40:13.796Z,13.99
2023-01-07T03:42:41.887Z,14.00
2023-01-07T03:45:37.757Z,14.01
2023-01-07T03:48:04.818Z,14.00
2023-01-07T03:50:36.506Z,14.01
2023-01-07T03:53:03.878Z,14.01
2023-01-07T03:55:33.806Z,14.00
2023-01-07T03:58:00.784Z,14.01
2023-01-07T04:00:27.507Z,14.01
2023-01-07T04:03:02.340Z,14.03
2023-01-07T04:05:36.656Z,14.04
2023-01-07T04:08:03.299Z,14.02
2023-01-07T04:10:33.621Z,14.00
2023-01-07T04:13:00.297Z,13.98
2023-01-07T04:15:26.885Z,13.98
2023-01-07T04:17:53.606Z,13.97
2023-01-07T04:20:20.464Z,13.96
2023-01-07T04:22:46.979Z,13.95
2023-01-07T04:25:13.773Z,13.95
2023-01-07T04:27:40.443Z,13.96
2023-01-07T04:30:09.117Z,13.97
2023-01-07T04:32:35.699Z,13.99
2023-01-07T04:35:02.301Z,14.00
2023-01-07T04:37:30.023Z,14.02
2023-01-07T04:39:57.149Z,14.02
2023-01-07T04:42:23.736Z,14.03
2023-01-07T04:44:50.312Z,14.05
2023-01-07T04:47:16.853Z,14.05
2023-01-07T04:49:43.429Z,14.06
2023-01-07T04:52:10.202Z,14.07
2023-01-07T04:54:38.069Z,14.07
2023-01-07T04:57:04.643Z,14.04
2023-01-07T04:59:31.257Z,14.05
2023-01-07T05:02:00.289Z,14.03
2023-01-07T05:04:27.113Z,14.01
2023-01-07T05:06:54.454Z,13.99
2023-01-07T05:09:23.539Z,13.96
2023-01-07T05:11:50.486Z,13.94
2023-01-07T05:14:17.677Z,13.93
2023-01-07T05:16:44.938Z,13.91
2023-01-07T05:19:11.847Z,13.89
2023-01-07T05:21:42.739Z,13.88
2023-01-07T05:24:10.784Z,13.88
2023-01-07T05:26:37.270Z,13.85
2023-01-07T05:29:04.223Z,13.83
2023-01-07T05:31:32.103Z,13.84
2023-01-07T05:33:58.785Z,13.84
2023-01-07T05:36:26.329Z,13.86
2023-01-07T05:38:53.971Z,13.89
2023-01-07T05:41:20.681Z,13.89
2023-01-07T05:43:47.321Z,13.92
2023-01-07T05:46:14.275Z,13.94
2023-01-07T05:48:41.168Z,13.96
2023-01-07T05:51:07.758Z,13.99
2023-01-07T05:53:34.410Z,14.02
2023-01-07T05:56:01.510Z,14.03
2023-01-07T05:58:28.594Z,14.05
2023-01-07T06:00:55.465Z,14.07
2023-01-07T06:03:22.555Z,14.08
2023-01-07T06:05:49.216Z,14.09
2023-01-07T06:08:16.106Z,14.09
2023-01-07T06:10:44.241Z,14.10
2023-01-07T06:13:10.835Z,14.11
2023-01-07T06:15:37.451Z,14.11
2023-01-07T06:18:04.099Z,14.11
2023-01-07T06:20:34.481Z,14.12
2023-01-07T06:23:03.123Z,14.12
2023-01-07T06:25:29.809Z,14.11
2023-01-07T06:27:58.142Z,14.12
2023-01-07T06:30:24.864Z,14.12
2023-01-07T06:32:51.395Z,14.12
2023-01-07T06:35:18.018Z,14.12
2023-01-07T06:37:44.583Z,14.13
2023-01-07T06:40:12.015Z,14.14
2023-01-07T06:42:38.592Z,14.14
2023-01-07T06:45:05.583Z,14.13
2023-01-07T06:47:32.182Z,14.12
2023-01-07T06:49:58.698Z,14.11
2023-01-07T06:52:25.254Z,14.10
2023-01-07T06:54:51.867Z,14.10
2023-01-07T06:57:22.466Z,14.10
2023-01-07T06:59:48.986Z,14.10
2023-01-07T07:02:24.157Z,14.07
2023-01-07T07:04:50.702Z,14.07
2023-01-07T07:07:17.506Z,14.07
2023-01-07T07:09:44.671Z,14.07
2023-01-07T07:12:11.835Z,14.06
2023-01-07T07:14:39.027Z,14.04
2023-01-07T07:17:06.325Z,14.05
2023-01-07T07:19:32.963Z,14.05
2023-01-07T07:21:59.475Z,14.06
2023-01-07T07:24:26.028Z,14.05
2023-01-07T07:26:52.513Z,14.05
2023-01-07T07:29:21.607Z,14.04
2023-01-07T07:31:48.375Z,14.03
2023-01-07T07:34:14.876Z,14.04
2023-01-07T07:36:41.398Z,14.02
2023-01-07T07:39:08.060Z,14.02
2023-01-07T07:41:34.608Z,14.00
2023-01-07T07:44:06.872Z,13.99
2023-01-07T07:46:33.857Z,13.98
2023-01-07T07:49:00.462Z,13.96
2023-01-07T07:51:27.135Z,13.95
2023-01-07T07:53:53.626Z,13.94
2023-01-07T07:56:20.238Z,13.93
2023-01-07T07:58:46.878Z,13.93
2023-01-07T08:01:13.550Z,13.91
2023-01-07T08:03:40.154Z,13.93
2023-01-07T08:06:07.180Z,13.93
2023-01-07T08:08:33.930Z,13.91
2023-01-07T08:11:00.419Z,13.92
2023-01-07T08:13:26.947Z,13.94
2023-01-07T08:15:53.561Z,13.94
2023-01-07T08:18:20.178Z,13.95
2023-01-07T08:20:47.239Z,13.95
2023-01-07T08:23:13.986Z,13.96
2023-01-07T08:25:40.605Z,13.99
2023-01-07T08:28:07.137Z,14.03
2023-01-07T08:30:33.698Z,14.03
2023-01-07T08:33:00.397Z,14.04
2023-01-07T08:35:27.013Z,14.05
2023-01-07T08:38:00.979Z,14.06
2023-01-07T08:40:27.478Z,14.07
2023-01-07T08:42:57.995Z,14.08
2023-01-07T08:45:24.604Z,14.09
2023-01-07T08:47:51.327Z,14.11
2023-01-07T08:50:20.158Z,14.13
2023-01-07T08:52:47.391Z,14.14
2023-01-07T08:55:14.068Z,14.16
2023-01-07T08:57:40.602Z,14.17
2023-01-07T09:00:07.780Z,14.18
2023-01-07T09:03:02.548Z,14.18
2023-01-07T09:05:29.348Z,14.21
2023-01-07T09:07:56.955Z,14.22
2023-01-07T09:10:24.214Z,14.23
2023-01-07T09:12:50.809Z,14.24
2023-01-07T09:15:17.589Z,14.25
2023-01-07T09:17:44.108Z,14.26
2023-01-07T09:20:10.745Z,14.28
2023-01-07T09:22:37.735Z,14.28
2023-01-07T09:25:06.080Z,14.30
2023-01-07T09:27:32.910Z,14.31
2023-01-07T09:29:59.463Z,14.32
2023-01-07T09:32:26.477Z,14.33
2023-01-07T09:34:53.153Z,14.33
2023-01-07T09:37:19.862Z,14.35
2023-01-07T09:39:46.342Z,14.35
2023-01-07T09:42:12.822Z,14.38
2023-01-07T09:45:08.150Z,14.39
2023-01-07T09:47:37.148Z,14.44
2023-01-07T09:50:14.586Z,14.46
2023-01-07T09:52:48.926Z,14.48
2023-01-07T09:55:21.064Z,14.48
2023-01-07T09:57:48.029Z,14.51
2023-01-07T10:00:22.258Z,14.53
2023-01-07T10:02:51.838Z,14.54
2023-01-07T10:05:18.336Z,14.58
2023-01-07T10:07:50.818Z,14.59
2023-01-07T10:10:26.453Z,14.63
2023-01-07T10:13:05.005Z,14.67
2023-01-07T10:15:47.119Z,14.69
2023-01-07T10:18:41.585Z,14.74
2023-01-07T10:21:27.529Z,14.85
2023-01-07T10:24:05.338Z,14.97
2023-01-07T10:26:39.306Z,15.07
2023-01-07T10:29:16.718Z,15.19
2023-01-07T10:31:45.616Z,15.27
2023-01-07T10:34:28.987Z,15.35
2023-01-07T10:37:27.601Z,15.42
2023-01-07T10:40:12.446Z,15.49
2023-01-07T10:43:13.210Z,15.53
2023-01-07T10:45:54.963Z,15.60
2023-01-07T10:48:48.934Z,15.63
2023-01-07T10:51:44.914Z,15.70
2023-01-07T10:54:29.445Z,15.77
2023-01-07T10:57:03.577Z,15.79
2023-01-07T10:59:30.487Z,15.82
2023-01-07T11:01:59.414Z,15.82
2023-01-07T11:04:26.542Z,15.82
2023-01-07T11:07:04.552Z,15.85
2023-01-07T11:09:35.305Z,15.89
2023-01-07T11:12:26.374Z,15.92
2023-01-07T11:14:56.685Z,15.99
2023-01-07T11:17:35.808Z,16.01
2023-01-07T11:20:04.300Z,16.03
2023-01-07T11:22:33.893Z,16.05
2023-01-07T11:25:02.528Z,16.08
2023-01-07T11:27:31.882Z,16.09
2023-01-07T11:30:20.012Z,16.07
2023-01-07T11:32:56.705Z,16.06
2023-01-07T11:35:23.729Z,16.07
2023-01-07T11:37:50.672Z,16.07
2023-01-07T11:40:22.171Z,16.09
2023-01-07T11:43:02.131Z,16.17
2023-01-07T11:45:33.031Z,16.20
2023-01-07T11:48:09.310Z,16.20
2023-01-07T11:50:41.827Z,16.18
2023-01-07T11:53:14.179Z,16.18
2023-01-07T11:55:57.104Z,16.17
2023-01-07T11:58:30.898Z,16.19
2023-01-07T12:01:13.161Z,16.25
2023-01-07T12:03:43.573Z,16.29
2023-01-07T12:06:24.416Z,16.34
2023-01-07T12:09:18.959Z,16.38
2023-01-07T12:11:45.999Z,16.43
2023-01-07T12:14:38.908Z,16.45
2023-01-07T12:17:17.606Z,16.48
2023-01-07T12:20:05.830Z,16.50
2023-01-07T12:22:41.041Z,16.54
2023-01-07T12:25:35.569Z,16.55
2023-01-07T12:28:06.925Z,16.53
2023-01-07T12:30:40.603Z,16.51
2023-01-07T12:33:17.672Z,16.48
2023-01-07T12:35:45.587Z,16.51
2023-01-07T12:38:14.797Z,16.51
2023-01-07T12:41:11.641Z,16.50
2023-01-07T12:44:03.206Z,16.49
2023-01-07T12:46:40.506Z,16.48
2023-01-07T12:49:15.018Z,16.48
2023-01-07T12:51:47.898Z,16.49
2023-01-07T12:54:16.849Z,16.48
2023-01-07T12:56:53.545Z,16.50
2023-01-07T12:59:45.700Z,16.53
2023-01-07T13:02:17.422Z,16.56
2023-01-07T13:04:49.769Z,16.58
2023-01-07T13:07:37.429Z,16.58
2023-01-07T13:10:12.915Z,16.59
2023-01-07T13:12:48.610Z,16.52
2023-01-07T13:15:26.841Z,16.48
2023-01-07T13:18:10.722Z,16.42
2023-01-07T13:21:04.728Z,16.35
2023-01-07T13:24:07.359Z,16.28
2023-01-07T13:26:43.061Z,16.24
2023-01-07T13:29:44.598Z,16.16
2023-01-07T13:32:34.167Z,16.14
2023-01-07T13:35:35.537Z,16.11
2023-01-07T13:38:12.974Z,16.05
2023-01-07T13:40:58.467Z,16.04
2023-01-07T13:43:49.426Z,16.05
2023-01-07T13:46:24.952Z,15.99
2023-01-07T13:48:54.187Z,15.99
2023-01-07T13:51:30.806Z,15.95
2023-01-07T13:53:57.872Z,15.94
2023-01-07T13:56:24.396Z,15.87
2023-01-07T13:58:58.036Z,15.82
2023-01-07T14:01:25.576Z,15.79
2023-01-07T14:03:53.512Z,15.75
2023-01-07T14:06:20.409Z,15.73
2023-01-07T14:08:51.392Z,15.68
2023-01-07T14:11:20.028Z,15.63
2023-01-07T14:14:01.814Z,15.56
2023-01-07T14:16:41.307Z,15.51
2023-01-07T14:19:31.815Z,15.45
2023-01-07T14:22:26.525Z,15.38
2023-01-07T14:25:07.931Z,15.33
2023-01-07T14:27:53.355Z,15.33
2023-01-07T14:30:23.513Z,15.29
2023-01-07T14:33:17.771Z,15.24
2023-01-07T14:35:54.812Z,15.24
2023-01-07T14:38:30.453Z,15.23
2023-01-07T14:41:02.965Z,15.18
2023-01-07T14:43:47.675Z,15.15
2023-01-07T14:46:23.314Z,15.11
2023-01-07T14:49:01.973Z,15.07
2023-01-07T14:51:47.252Z,15.03
2023-01-07T14:54:46.430Z,15.00
2023-01-07T14:57:36.031Z,14.96
2023-01-07T15:00:42.893Z,14.94
2023-01-07T15:03:09.286Z,14.94
2023-01-07T15:05:53.187Z,14.93
2023-01-07T15:08:42.064Z,14.90
2023-01-07T15:11:39.543Z,14.85
2023-01-07T15:14:36.823Z,14.81
2023-01-07T15:17:03.948Z,14.78
2023-01-07T15:19:30.580Z,14.77
2023-01-07T15:22:25.507Z,14.76
2023-01-07T15:25:13.365Z,14.75
2023-01-07T15:28:04.333Z,14.71
2023-01-07T15:30:44.022Z,14.67
2023-01-07T15:33:34.573Z,14.61
2023-01-07T15:36:03.860Z,14.57
2023-01-07T15:38:44.385Z,14.51
2023-01-07T15:41:40.599Z,14.46
2023-01-07T15:44:17.528Z,14.47
2023-01-07T15:46:44.448Z,14.46
2023-01-07T15:49:11.034Z,14.40
2023-01-07T15:51:43.078Z,14.31
2023-01-07T15:54:25.854Z,14.29
2023-01-07T15:56:55.654Z,14.25
2023-01-07T15:59:31.136Z,14.24
2023-01-07T16:02:22.142Z,14.24
2023-01-07T16:04:52.056Z,14.24
2023-01-07T16:07:23.342Z,14.22
2023-01-07T16:09:50.838Z,14.20
2023-01-07T16:12:36.229Z,14.17
2023-01-07T16:15:25.521Z,14.16
2023-01-07T16:17:52.811Z,14.16
2023-01-07T16:20:23.357Z,14.16
2023-01-07T16:22:50.678Z,14.15
2023-01-07T16:25:24.799Z,14.15
2023-01-07T16:27:51.667Z,14.15
2023-01-07T16:30:18.683Z,14.15
2023-01-07T16:32:46.237Z,14.16
2023-01-07T16:35:25.782Z,14.17
2023-01-07T16:37:53.752Z,14.18
2023-01-07T16:40:31.155Z,14.17
2023-01-07T16:42:57.664Z,14.16
2023-01-07T16:45:27.067Z,14.14
2023-01-07T16:48:19.903Z,14.14
2023-01-07T16:50:48.074Z,14.13
2023-01-07T16:53:33.543Z,14.12
2023-01-07T16:56:13.098Z,14.14
2023-01-07T16:58:53.001Z,14.13
2023-01-07T17:01:33.672Z,14.11
2023-01-07T17:04:07.229Z,14.09
2023-01-07T17:06:42.244Z,14.10
2023-01-07T17:09:35.403Z,14.10
2023-01-07T17:12:03.018Z,14.09
2023-01-07T17:14:38.190Z,14.06
2023-01-07T17:17:16.582Z,14.04
2023-01-07T17:20:12.289Z,14.03
2023-01-07T17:22:39.797Z,14.04
2023-01-07T17:25:28.307Z,14.02
2023-01-07T17:28:01.015Z,14.02
2023-01-07T17:30:36.002Z,14.04
2023-01-07T17:33:03.180Z,14.03
2023-01-07T17:35:29.870Z,14.04
2023-01-07T17:37:56.872Z,14.02
2023-01-07T17:40:23.397Z,14.00
2023-01-07T17:43:08.933Z,13.96
2023-01-07T17:45:35.481Z,13.93
2023-01-07T17:48:02.321Z,13.89
2023-01-07T17:50:36.079Z,13.86
2023-01-07T17:53:04.356Z,13.86
2023-01-07T17:55:35.543Z,13.84
2023-01-07T17:58:02.035Z,13.81
2023-01-07T18:00:31.145Z,13.78
2023-01-07T18:02:58.185Z,13.77
2023-01-07T18:05:26.242Z,13.75
2023-01-07T18:07:53.031Z,13.74
2023-01-07T18:10:28.715Z,13.73
2023-01-07T18:12:55.419Z,13.74
2023-01-07T18:15:25.486Z,13.73
2023-01-07T18:17:52.572Z,13.72
2023-01-07T18:20:21.291Z,13.70
2023-01-07T18:22:48.801Z,13.67
2023-01-07T18:25:18.234Z,13.67
2023-01-07T18:27:45.130Z,13.65
2023-01-07T18:30:15.240Z,13.66
2023-01-07T18:32:42.284Z,13.65
2023-01-07T18:35:09.816Z,13.62
2023-01-07T18:37:36.774Z,13.61
2023-01-07T18:40:05.411Z,13.63
2023-01-07T18:42:34.281Z,13.62
2023-01-07T18:45:01.775Z,13.61
2023-01-07T18:47:28.265Z,13.61
2023-01-07T18:49:54.898Z,13.62
2023-01-07T18:52:21.441Z,13.64
2023-01-07T18:54:48.213Z,13.65
2023-01-07T18:57:14.819Z,13.61
2023-01-07T18:59:41.648Z,13.63
2023-01-07T19:02:17.776Z,13.64
2023-01-07T19:04:44.480Z,13.66
2023-01-07T19:07:11.193Z,13.66
2023-01-07T19:09:37.846Z,13.68
2023-01-07T19:12:05.983Z,13.71
2023-01-07T19:14:34.182Z,13.72
2023-01-07T19:17:00.791Z,13.74
2023-01-07T19:19:32.032Z,13.75
2023-01-07T19:22:00.959Z,13.76
2023-01-07T19:24:27.479Z,13.78
2023-01-07T19:26:54.015Z,13.80
2023-01-07T19:29:20.667Z,13.82
2023-01-07T19:31:47.407Z,13.83
2023-01-07T19:34:14.949Z,13.85
2023-01-07T19:36:46.490Z,13.87
2023-01-07T19:39:16.910Z,13.89
2023-01-07T19:41:44.111Z,13.91
2023-01-07T19:44:11.436Z,13.93
2023-01-07T19:46:40.451Z,13.93
2023-01-07T19:49:07.893Z,13.94
2023-01-07T19:51:36.041Z,13.95
2023-01-07T19:54:03.270Z,13.95
2023-01-07T19:56:30.888Z,13.95
2023-01-07T19:58:59.046Z,13.96
2023-01-07T20:01:28.270Z,13.98
2023-01-07T20:03:57.126Z,14.00
2023-01-07T20:06:29.161Z,14.03
2023-01-07T20:08:58.098Z,14.04
2023-01-07T20:11:25.640Z,14.04
2023-01-07T20:13:52.190Z,14.06
2023-01-07T20:16:23.987Z,14.05
2023-01-07T20:18:52.982Z,14.08
2023-01-07T20:21:21.957Z,14.08
2023-01-07T20:23:48.800Z,14.09
2023-01-07T20:26:20.275Z,14.11
2023-01-07T20:28:47.371Z,14.12
2023-01-07T20:31:15.841Z,14.13
2023-01-07T20:33:43.258Z,14.14
2023-01-07T20:36:14.314Z,14.13
2023-01-07T20:38:42.072Z,14.13
2023-01-07T20:41:12.890Z,14.13
2023-01-07T20:43:39.375Z,14.16
2023-01-07T20:46:07.605Z,14.18
2023-01-07T20:48:35.029Z,14.21
2023-01-07T20:51:08.685Z,14.23
2023-01-07T20:53:37.111Z,14.25
2023-01-07T20:56:05.103Z,14.26
2023-01-07T20:58:34.003Z,14.27
2023-01-07T21:01:22.499Z,14.25
2023-01-07T21:03:49.426Z,14.25
2023-01-07T21:06:17.940Z,14.26
2023-01-07T21:08:46.408Z,14.27
2023-01-07T21:11:15.570Z,14.30
2023-01-07T21:13:42.669Z,14.30
2023-01-07T21:16:10.025Z,14.29
2023-01-07T21:18:36.625Z,14.31
2023-01-07T21:21:10.230Z,14.30
2023-01-07T21:23:36.836Z,14.30
2023-01-07T21:26:03.485Z,14.27
2023-01-07T21:28:30.001Z,14.27
2023-01-07T21:31:00.905Z,14.28
2023-01-07T21:33:27.430Z,14.30
2023-01-07T21:35:53.972Z,14.29
2023-01-07T21:38:20.459Z,14.28
2023-01-07T21:40:47.014Z,14.27
2023-01-07T21:43:13.521Z,14.29
2023-01-07T21:45:40.257Z,14.28
2023-01-07T21:48:06.883Z,14.27
2023-01-07T21:50:33.407Z,14.26
2023-01-07T21:52:59.986Z,14.27
2023-01-07T21:55:26.473Z,14.26
2023-01-07T21:57:52.957Z,14.25
2023-01-07T22:00:19.591Z,14.24
2023-01-07T22:02:46.188Z,14.19
2023-01-07T22:05:12.798Z,14.18
2023-01-07T22:07:39.441Z,14.16
2023-01-07T22:10:06.387Z,14.15
2023-01-07T22:12:33.014Z,14.14
2023-01-07T22:14:59.567Z,14.13
2023-01-07T22:17:26.757Z,14.13
2023-01-07T22:19:53.345Z,14.13
2023-01-07T22:22:20.909Z,14.12
2023-01-07T22:24:47.607Z,14.13
2023-01-07T22:27:14.634Z,14.12
2023-01-07T22:29:42.311Z,14.13
2023-01-07T22:32:09.017Z,14.12
2023-01-07T22:34:35.635Z,14.12
2023-01-07T22:37:10.729Z,14.12
2023-01-07T22:39:53.672Z,14.10
2023-01-07T22:42:30.543Z,14.09
2023-01-07T22:45:02.699Z,14.09
2023-01-07T22:47:34.923Z,14.09
2023-01-07T22:50:03.906Z,14.07
2023-01-07T22:52:30.633Z,14.06
2023-01-07T22:54:58.157Z,14.03
2023-01-07T22:57:25.275Z,14.03
2023-01-07T22:59:51.791Z,14.05
2023-01-07T23:02:18.342Z,14.05
2023-01-07T23:04:44.846Z,14.06
2023-01-07T23:07:11.422Z,14.07
2023-01-07T23:09:37.968Z,14.09
2023-01-07T23:12:04.568Z,14.09
2023-01-07T23:14:32.408Z,14.08
2023-01-07T23:16:59.504Z,14.09
2023-01-07T23:19:26.116Z,14.11
2023-01-07T23:21:54.167Z,14.12
2023-01-07T23:24:21.774Z,14.16
2023-01-07T23:26:52.132Z,14.17
2023-01-07T23:29:19.025Z,14.16
2023-01-07T23:31:45.793Z,14.16
2023-01-07T23:34:14.097Z,14.15
2023-01-07T23:36:40.665Z,14.15
2023-01-07T23:39:07.330Z,14.15
2023-01-07T23:41:33.869Z,14.16
2023-01-07T23:44:00.432Z,14.16
2023-01-07T23:46:27.027Z,14.16
2023-01-07T23:48:53.561Z,14.17
2023-01-07T23:51:21.153Z,14.17
2023-01-07T23:53:48.629Z,14.18
2023-01-07T23:56:18.898Z,14.17
2023-01-07T23:58:45.477Z,14.16
